Time;durP1;ratioP1;P1;durP2;ratioP2;P2;SDS_P1;SDS_P2;PMS_P1;PMS_P2;Temp;Humidity;BMP_temperature;BMP_pressure;BME280_temperature;BME280_humidity;BME280_pressure;Samples;Min_cycle;Max_cycle;Signal;HPM_P1;HPM_P2
2024/03/22 00:02:08;;;;;;;8.75;4.72;;;11.50;62.30;;;6.91;100.00;96199.66;4990754;28;20071;-56
2024/03/22 00:04:36;;;;;;;9.13;5.07;;;11.50;62.20;;;6.87;100.00;96193.22;4987024;28;20057;-49
2024/03/22 00:07:03;;;;;;;7.95;4.75;;;11.40;61.40;;;6.78;100.00;96195.38;4987892;28;20024;-50
2024/03/22 00:09:29;;;;;;;7.18;4.57;;;11.40;61.40;;;6.64;100.00;96200.06;4987906;28;20049;-49
2024/03/22 00:11:54;;;;;;;5.63;4.50;;;11.30;61.30;;;6.60;100.00;96200.69;4991678;28;20056;-48
2024/03/22 00:14:20;;;;;;;7.43;4.70;;;11.20;61.40;;;6.55;100.00;96193.44;4990006;28;20034;-50
2024/03/22 00:16:46;;;;;;;5.60;4.18;;;11.20;61.50;;;6.48;100.00;96193.50;4988936;28;20021;-50
2024/03/22 00:19:12;;;;;;;8.15;5.03;;;11.10;61.50;;;6.39;100.00;96197.53;4990088;28;20064;-49
2024/03/22 00:21:37;;;;;;;7.05;4.72;;;11.10;61.50;;;6.34;100.00;96189.44;4989868;28;20025;-53
2024/03/22 00:24:04;;;;;;;9.90;5.93;;;11.00;61.50;;;6.29;100.00;96191.13;4988796;28;20087;-49
2024/03/22 00:26:29;;;;;;;9.30;4.95;;;10.90;61.60;;;6.23;100.00;96182.22;4989223;28;20022;-49
2024/03/22 00:28:57;;;;;;;7.40;4.93;;;10.90;61.70;;;6.20;100.00;96178.19;4986757;28;20397;-51
2024/03/22 00:31:25;;;;;;;9.65;5.50;;;10.80;61.70;;;6.15;100.00;96186.00;4989649;28;20049;-49
2024/03/22 00:33:51;;;;;;;10.05;5.50;;;10.80;61.80;;;6.12;100.00;96183.78;4989749;28;20071;-51
2024/03/22 00:36:16;;;;;;;6.35;5.15;;;10.70;61.80;;;6.08;100.00;96190.56;4988722;28;20029;-49
2024/03/22 00:38:42;;;;;;;7.75;4.82;;;10.70;61.90;;;5.95;100.00;96191.50;4989738;28;20022;-51
2024/03/22 00:41:08;;;;;;;11.32;5.53;;;10.60;61.80;;;5.89;100.00;96189.72;4988252;28;20068;-55
2024/03/22 00:43:34;;;;;;;10.57;5.20;;;10.60;61.80;;;5.89;100.00;96187.09;4991771;28;20025;-51
2024/03/22 00:46:01;;;;;;;8.13;5.40;;;10.50;61.70;;;5.87;100.00;96188.31;4988936;28;20108;-55
2024/03/22 00:48:27;;;;;;;7.65;5.40;;;10.50;61.80;;;5.74;100.00;96187.44;4987347;28;20033;-51
2024/03/22 00:50:52;;;;;;;6.28;4.97;;;10.40;61.80;;;5.66;100.00;96179.78;4989429;28;20034;-50
2024/03/22 00:53:18;;;;;;;9.77;5.40;;;10.40;61.80;;;5.57;100.00;96181.09;4985682;28;20080;-55
2024/03/22 00:55:44;;;;;;;7.90;5.32;;;10.30;61.80;;;5.52;100.00;96170.38;4988602;28;20041;-50
2024/03/22 00:58:10;;;;;;;7.28;5.82;;;10.20;61.80;;;5.49;100.00;96173.44;4988067;28;20480;-53
2024/03/22 01:00:37;;;;;;;8.68;4.65;;;10.20;62.00;;;5.50;100.00;96161.84;4985916;28;20038;-49
2024/03/22 01:03:03;;;;;;;9.50;4.55;;;10.10;62.30;;;5.42;100.00;96170.03;4989652;28;20048;-50
2024/03/22 01:05:29;;;;;;;5.55;4.43;;;10.10;62.40;;;5.40;100.00;96174.75;4988650;28;20030;-50
2024/03/22 01:07:55;;;;;;;5.82;4.18;;;10.10;62.50;;;5.37;100.00;96164.63;4985574;28;20530;-53
2024/03/22 01:10:21;;;;;;;7.22;4.70;;;10.10;62.50;;;5.38;100.00;96174.97;4988351;28;20022;-53
2024/03/22 01:12:46;;;;;;;7.50;4.50;;;10.10;62.60;;;5.38;100.00;96166.22;4989124;28;20048;-53
2024/03/22 01:15:12;;;;;;;7.30;4.32;;;10.10;62.60;;;5.37;100.00;96154.84;4988566;28;20025;-49
2024/03/22 01:17:38;;;;;;;7.20;4.35;;;10.00;62.60;;;5.37;100.00;96160.13;4987846;28;20025;-55
2024/03/22 01:20:04;;;;;;;7.63;4.60;;;10.00;62.70;;;5.34;100.00;96155.28;4984852;28;20384;-51
2024/03/22 01:22:30;;;;;;;8.35;4.60;;;10.00;62.80;;;5.33;100.00;96159.78;4985079;28;20378;-51
2024/03/22 01:24:56;;;;;;;7.22;4.45;;;10.00;63.00;;;5.29;100.00;96160.41;4995829;23;20555;-48
2024/03/22 01:27:22;;;;;;;6.00;4.10;;;10.00;63.10;;;5.30;100.00;96162.03;4969018;28;20046;-51
2024/03/22 01:29:48;;;;;;;7.22;4.47;;;10.00;63.10;;;5.27;100.00;96162.47;4968604;28;20018;-48
2024/03/22 01:32:14;;;;;;;7.82;4.63;;;10.00;63.20;;;5.21;100.00;96155.41;4964561;28;20022;-48
2024/03/22 01:34:40;;;;;;;8.00;4.53;;;9.90;63.20;;;5.18;100.00;96147.91;4957328;28;20022;-47
2024/03/22 01:37:06;;;;;;;9.05;4.80;;;9.90;63.30;;;5.16;100.00;96153.41;4938765;28;20478;-47
2024/03/22 01:39:32;;;;;;;7.88;4.72;;;9.90;63.40;;;5.14;100.00;96147.56;4943856;28;20019;-47
2024/03/22 01:41:58;;;;;;;7.53;4.80;;;9.80;63.40;;;5.08;100.00;96143.94;4945810;28;20520;-49
2024/03/22 01:44:32;;;;;;;5.53;4.50;;;9.80;63.50;;;5.09;100.00;96145.53;4943050;28;20038;-47
2024/03/22 01:47:01;;;;;;;7.20;4.85;;;9.70;63.70;;;5.09;100.00;96142.91;4943100;28;20022;-47
2024/03/22 01:49:27;;;;;;;8.00;4.85;;;9.80;63.70;;;5.07;100.00;96136.22;4942175;28;20109;-52
2024/03/22 01:51:53;;;;;;;6.72;4.93;;;9.70;63.80;;;5.05;100.00;96146.19;4944946;28;20539;-47
2024/03/22 01:54:21;;;;;;;8.77;5.03;;;9.70;63.80;;;5.05;100.00;96136.44;4944744;28;20027;-47
2024/03/22 01:56:48;;;;;;;7.93;4.78;;;9.70;63.90;;;5.07;100.00;96134.38;4944624;28;20030;-50
2024/03/22 01:59:14;;;;;;;6.78;5.15;;;9.70;63.90;;;5.10;100.00;96135.78;4940546;28;20409;-51
2024/03/22 02:01:40;;;;;;;7.85;5.20;;;9.70;64.00;;;5.12;100.00;96133.75;4942860;28;20027;-47
2024/03/22 02:04:06;;;;;;;8.57;4.80;;;9.80;64.10;;;5.10;100.00;96133.13;4948914;28;20035;-55
2024/03/22 02:06:33;;;;;;;6.20;4.93;;;9.80;64.10;;;5.08;100.00;96132.56;4941928;28;20026;-47
2024/03/22 02:08:59;;;;;;;6.93;4.50;;;9.70;64.00;;;5.08;100.00;96125.44;4944008;28;20126;-47
2024/03/22 02:11:27;;;;;;;8.27;5.13;;;9.70;64.10;;;5.06;100.00;96121.41;4939204;28;20126;-49
2024/03/22 02:13:53;;;;;;;9.20;5.38;;;9.70;64.20;;;5.05;100.00;96123.25;4944450;28;20117;-49
2024/03/22 02:16:19;;;;;;;9.82;5.25;;;9.70;64.20;;;5.09;100.00;96120.97;4945259;28;20458;-49
2024/03/22 02:18:45;;;;;;;9.93;5.63;;;9.70;64.30;;;5.10;100.00;96122.56;4945463;28;20031;-48
2024/03/22 02:21:11;;;;;;;7.85;5.43;;;9.70;64.30;;;5.12;100.00;96117.09;4948088;28;20078;-46
2024/03/22 02:23:40;;;;;;;8.32;5.10;;;9.70;64.40;;;5.08;100.00;96114.88;4941835;28;20034;-52
2024/03/22 02:26:07;;;;;;;8.32;5.45;;;9.70;64.50;;;5.08;100.00;96112.25;4946849;28;20062;-49
2024/03/22 02:28:36;;;;;;;7.45;5.07;;;9.70;64.50;;;5.04;100.00;96108.41;4943324;28;20030;-48
2024/03/22 02:31:05;;;;;;;8.45;5.60;;;9.70;64.60;;;5.06;100.00;96108.19;4948087;28;20034;-49
2024/03/22 02:33:31;;;;;;;6.10;5.30;;;9.70;64.60;;;5.08;100.00;96103.53;4946307;28;20022;-49
2024/03/22 02:35:57;;;;;;;10.10;5.00;;;9.70;64.60;;;5.10;100.00;96110.19;4945056;28;20640;-47
2024/03/22 02:38:23;;;;;;;9.82;5.88;;;9.70;64.60;;;5.10;100.00;96104.09;4945127;28;20029;-47
2024/03/22 02:40:52;;;;;;;7.93;5.70;;;9.80;64.70;;;5.12;100.00;96099.41;4939961;28;20059;-46
2024/03/22 02:43:18;;;;;;;5.60;4.90;;;9.80;64.80;;;5.13;100.00;96101.00;4950893;28;20041;-52
2024/03/22 02:45:46;;;;;;;8.18;5.53;;;9.80;64.80;;;5.17;100.00;96102.22;4944335;28;20053;-49
2024/03/22 02:48:12;;;;;;;8.25;4.70;;;9.80;64.90;;;5.22;100.00;96094.44;4944630;28;20070;-51
2024/03/22 02:50:38;;;;;;;7.97;5.20;;;9.80;64.90;;;5.24;100.00;96088.94;4939804;28;20054;-51
2024/03/22 02:53:05;;;;;;;6.40;5.10;;;9.80;64.90;;;5.25;100.00;96096.63;4944229;28;20078;-52
2024/03/22 02:55:40;;;;;;;8.73;5.00;;;9.80;65.00;;;5.29;100.00;96086.44;4945933;28;20030;-47
2024/03/22 02:58:08;;;;;;;7.28;5.00;;;9.90;65.30;;;5.31;100.00;96079.91;4944085;28;20110;-52
2024/03/22 03:00:38;;;;;;;6.72;4.68;;;9.90;65.20;;;5.34;100.00;96087.41;4945022;28;20038;-50
2024/03/22 03:03:06;;;;;;;6.93;4.85;;;9.90;65.30;;;5.37;100.00;96082.72;4942048;28;20117;-49
2024/03/22 03:05:32;;;;;;;6.20;4.20;;;10.00;65.30;;;5.37;100.00;96080.88;4941994;28;20402;-48
2024/03/22 03:07:58;;;;;;;6.78;4.70;;;10.00;65.20;;;5.38;100.00;96089.59;4948786;28;20516;-48
2024/03/22 03:10:24;;;;;;;6.40;4.40;;;10.00;65.20;;;5.40;100.00;96077.00;4942376;28;20054;-48
2024/03/22 03:12:50;;;;;;;9.10;5.10;;;10.00;65.20;;;5.40;100.00;96074.34;4947779;28;20027;-51
2024/03/22 03:15:17;;;;;;;6.72;4.72;;;10.00;65.20;;;5.38;100.00;96069.28;4939897;28;20026;-51
2024/03/22 03:17:43;;;;;;;7.70;4.60;;;10.00;65.20;;;5.42;100.00;96082.84;4947062;28;20370;-47
2024/03/22 03:20:13;;;;;;;8.90;4.55;;;10.10;65.30;;;5.41;100.00;96074.13;4950824;28;20117;-48
2024/03/22 03:22:41;;;;;;;7.30;4.47;;;10.10;65.40;;;5.49;100.00;96068.56;4942540;28;20051;-52
2024/03/22 03:25:08;;;;;;;9.23;4.28;;;10.10;65.40;;;5.55;100.00;96072.16;4942455;28;20042;-50
2024/03/22 03:27:34;;;;;;;8.20;4.20;;;10.10;65.40;;;5.54;100.00;96066.03;4940018;28;20050;-46
2024/03/22 03:30:02;;;;;;;5.78;4.35;;;10.10;65.50;;;5.57;100.00;96078.00;4962314;28;20019;-48
2024/03/22 03:32:28;;;;;;;7.85;4.60;;;10.10;65.40;;;5.55;100.00;96072.97;4943728;28;20049;-46
2024/03/22 03:34:54;;;;;;;7.03;4.20;;;10.10;65.50;;;5.57;100.00;96075.38;4947020;28;20065;-48
2024/03/22 03:37:20;;;;;;;6.40;4.32;;;10.10;65.50;;;5.55;100.00;96069.50;4939168;28;20034;-48
2024/03/22 03:39:46;;;;;;;5.65;3.75;;;10.10;65.40;;;5.56;100.00;96071.13;4944313;28;20027;-47
2024/03/22 03:42:12;;;;;;;7.45;4.53;;;10.10;65.40;;;5.51;100.00;96071.75;4943504;28;20417;-51
2024/03/22 03:44:37;;;;;;;8.20;4.60;;;10.10;65.40;;;5.55;100.00;96057.09;4945136;28;20042;-48
2024/03/22 03:47:04;;;;;;;6.72;4.70;;;10.10;65.50;;;5.56;100.00;96060.56;4946658;28;20019;-47
2024/03/22 03:49:30;;;;;;;10.30;5.18;;;10.10;65.60;;;5.57;100.00;96054.22;4940617;28;20115;-46
2024/03/22 03:51:55;;;;;;;11.68;5.90;;;10.10;65.60;;;5.62;100.00;96057.03;4945882;28;20113;-48
2024/03/22 03:54:21;;;;;;;6.95;4.30;;;10.10;65.70;;;5.62;100.00;96051.75;4950721;28;20037;-52
2024/03/22 03:56:47;;;;;;;8.90;4.85;;;10.10;65.70;;;5.62;100.00;96043.00;4944263;28;20027;-49
2024/03/22 03:59:13;;;;;;;7.90;4.65;;;10.10;65.80;;;5.68;100.00;96037.63;4943878;28;20054;-50
2024/03/22 04:01:39;;;;;;;7.50;4.70;;;10.20;65.80;;;5.71;100.00;96039.03;4941580;28;20058;-46
2024/03/22 04:04:04;;;;;;;6.38;4.30;;;10.10;65.80;;;5.71;100.00;96033.75;4944577;28;20034;-50
2024/03/22 04:06:30;;;;;;;8.10;5.07;;;10.20;65.80;;;5.67;100.00;96036.03;4944217;28;20042;-53
2024/03/22 04:08:57;;;;;;;5.68;4.53;;;10.20;65.80;;;5.69;100.00;96028.66;4945723;28;20661;-48
2024/03/22 04:11:23;;;;;;;8.20;5.22;;;10.20;66.00;;;5.72;100.00;96036.16;4939242;28;20097;-50
2024/03/22 04:13:49;;;;;;;8.50;5.40;;;10.20;66.00;;;5.75;100.00;96026.97;4944914;28;20117;-48
2024/03/22 04:16:15;;;;;;;7.15;5.38;;;10.20;66.00;;;5.75;100.00;96019.03;4941498;28;20089;-52
2024/03/22 04:18:41;;;;;;;7.20;4.90;;;10.20;66.00;;;5.74;100.00;96018.25;4938274;28;20269;-48
2024/03/22 04:21:07;;;;;;;8.10;5.70;;;10.30;66.10;;;5.74;100.00;96020.09;4947358;28;20225;-54
2024/03/22 04:23:32;;;;;;;7.18;4.95;;;10.30;66.10;;;5.72;100.00;96022.94;4945316;28;20049;-49
2024/03/22 04:26:01;;;;;;;7.55;4.18;;;10.30;66.10;;;5.76;100.00;96023.28;4944312;28;20397;-47
2024/03/22 04:28:29;;;;;;;6.03;4.32;;;10.30;66.20;;;5.81;100.00;96020.81;4942685;28;20031;-48
2024/03/22 04:31:10;;;;;;;6.22;4.32;;;10.40;66.30;;;5.86;100.00;96020.94;4944792;28;20022;-47
2024/03/22 04:33:38;;;;;;;7.05;3.97;;;10.40;66.40;;;5.92;100.00;96028.00;4946802;28;20057;-48
2024/03/22 04:36:05;;;;;;;5.70;4.18;;;10.40;66.30;;;5.93;100.00;96029.63;4939329;28;20378;-52
2024/03/22 04:38:32;;;;;;;9.98;4.05;;;10.50;66.30;;;5.95;100.00;96024.91;4941151;28;20030;-48
2024/03/22 04:40:58;;;;;;;6.55;3.97;;;10.50;66.30;;;5.95;100.00;96034.66;4940730;28;20030;-47
2024/03/22 04:43:25;;;;;;;5.53;4.03;;;10.50;66.30;;;5.94;100.00;96022.50;4947817;28;20038;-50
2024/03/22 04:45:52;;;;;;;5.53;4.20;;;10.60;66.30;;;5.93;100.00;96028.81;4941523;28;20049;-49
2024/03/22 04:48:21;;;;;;;8.50;5.45;;;10.60;66.30;;;5.93;100.00;96029.63;4940989;28;20027;-53
2024/03/22 04:50:50;;;;;;;7.72;4.30;;;10.60;66.30;;;5.97;100.00;96027.31;4938972;28;20589;-47
2024/03/22 04:53:18;;;;;;;7.63;4.30;;;10.60;66.30;;;5.95;100.00;96029.38;4939898;28;20030;-48
2024/03/22 04:55:45;;;;;;;6.03;3.90;;;10.60;66.30;;;6.00;100.00;96021.59;4945287;28;20391;-47
2024/03/22 04:58:21;;;;;;;5.30;4.07;;;10.60;66.30;;;5.98;100.00;96019.16;4948024;28;20023;-54
2024/03/22 05:00:49;;;;;;;7.03;4.03;;;10.70;66.70;;;6.05;100.00;96020.91;4945529;28;20042;-49
2024/03/22 05:03:16;;;;;;;5.03;4.10;;;10.70;66.40;;;6.05;100.00;96018.25;4947076;28;20096;-50
2024/03/22 05:05:43;;;;;;;4.10;3.38;;;10.70;66.30;;;6.05;100.00;96010.31;4947318;28;20518;-49
2024/03/22 05:08:09;;;;;;;6.65;4.50;;;10.70;66.30;;;6.10;100.00;96010.47;4944014;28;20030;-47
2024/03/22 05:10:35;;;;;;;7.07;5.55;;;10.70;66.40;;;6.08;100.00;96013.34;4943180;28;20035;-49
2024/03/22 05:13:02;;;;;;;9.13;4.60;;;10.70;66.30;;;6.10;100.00;96010.47;4947046;28;20030;-49
2024/03/22 05:15:28;;;;;;;8.13;4.65;;;10.80;66.40;;;6.14;100.00;96012.44;4947216;28;20501;-50
2024/03/22 05:17:57;;;;;;;8.25;4.60;;;10.80;66.40;;;6.17;100.00;96012.00;4943231;28;20038;-50
2024/03/22 05:20:23;;;;;;;7.85;4.15;;;10.80;66.40;;;6.17;100.00;96012.00;4947848;28;20477;-47
2024/03/22 05:22:50;;;;;;;5.38;4.25;;;10.80;66.40;;;6.19;100.00;96007.28;4940619;28;20026;-50
2024/03/22 05:25:16;;;;;;;5.25;3.70;;;10.80;66.40;;;6.20;100.00;96003.59;4947688;28;20066;-46
2024/03/22 05:27:42;;;;;;;6.72;4.00;;;10.90;66.40;;;6.24;100.00;96007.41;4940776;28;20030;-47
2024/03/22 05:30:13;;;;;;;5.53;3.72;;;10.90;66.40;;;6.16;100.00;96005.06;4943809;28;20041;-50
2024/03/22 05:32:40;;;;;;;8.65;4.40;;;10.90;66.40;;;6.21;100.00;96002.56;4944545;28;20102;-47
2024/03/22 05:35:06;;;;;;;6.88;3.90;;;10.90;66.30;;;6.26;100.00;96001.88;4945804;28;20033;-47
2024/03/22 05:37:33;;;;;;;5.93;3.90;;;11.00;66.40;;;6.29;100.00;96001.44;4942103;28;20019;-50
2024/03/22 05:40:00;;;;;;;5.57;3.72;;;11.00;66.40;;;6.35;100.00;96005.00;4948974;28;20038;-48
2024/03/22 05:42:27;;;;;;;7.00;4.25;;;11.00;66.40;;;6.39;100.00;96004.34;4943265;28;20619;-48
2024/03/22 05:44:53;;;;;;;5.55;3.30;;;11.10;66.40;;;6.43;100.00;96002.03;4950015;28;20041;-49
2024/03/22 05:47:20;;;;;;;7.93;4.32;;;11.10;66.40;;;6.46;100.00;95993.66;4941644;28;20019;-49
2024/03/22 05:49:47;;;;;;;8.23;4.38;;;11.20;67.20;;;6.44;100.00;95991.22;4951343;28;20405;-47
2024/03/22 05:52:13;;;;;;;9.15;4.65;;;11.20;66.40;;;6.45;100.00;95992.03;4949013;28;20023;-53
2024/03/22 05:54:39;;;;;;;6.22;3.50;;;11.20;66.20;;;6.47;100.00;95992.59;4952188;28;20408;-49
2024/03/22 05:57:05;;;;;;;8.73;4.18;;;11.30;66.20;;;6.54;100.00;95995.16;4947646;28;20094;-51
2024/03/22 05:59:32;;;;;;;8.80;4.22;;;11.30;66.20;;;6.57;100.00;95987.53;4950734;28;20501;-49
2024/03/22 06:01:57;;;;;;;9.15;4.13;;;11.30;66.20;;;6.60;100.00;95984.44;4950360;28;20043;-51
2024/03/22 06:04:23;;;;;;;7.00;4.72;;;11.40;66.30;;;6.67;100.00;95985.13;4949498;28;20520;-51
2024/03/22 06:06:49;;;;;;;9.48;4.93;;;11.40;66.10;;;6.72;100.00;95984.47;4946132;28;20505;-51
2024/03/22 06:09:23;;;;;;;6.70;4.70;;;11.50;66.30;;;6.78;100.00;95988.84;4953464;28;20424;-49
2024/03/22 06:11:52;;;;;;;4.68;3.80;;;11.60;66.20;;;6.82;100.00;95979.38;4947180;28;20432;-51
2024/03/22 06:14:18;;;;;;;6.85;3.10;;;11.70;66.20;;;6.89;100.00;95985.38;4952623;28;20041;-47
2024/03/22 06:16:44;;;;;;;7.32;3.78;;;11.70;66.10;;;6.95;100.00;95983.63;4948423;28;20019;-48
2024/03/22 06:19:10;;;;;;;5.20;3.58;;;11.80;66.10;;;7.03;100.00;95977.19;4953006;28;20121;-46
2024/03/22 06:21:36;;;;;;;4.65;3.38;;;11.90;66.00;;;7.09;100.00;95979.72;4946716;28;20366;-47
2024/03/22 06:24:03;;;;;;;5.85;3.58;;;12.00;65.90;;;7.16;100.00;95977.75;4953384;28;20121;-50
2024/03/22 06:26:29;;;;;;;4.65;3.45;;;12.10;65.90;;;7.22;100.00;95976.00;4949635;28;20050;-48
2024/03/22 06:28:55;;;;;;;5.78;3.75;;;12.20;65.80;;;7.32;100.00;95980.72;4951234;28;20050;-48
2024/03/22 06:31:20;;;;;;;5.32;3.05;;;12.30;65.80;;;7.39;100.00;95978.72;4950222;28;20043;-49
2024/03/22 06:33:46;;;;;;;4.60;3.15;;;12.40;65.60;;;7.48;100.00;95977.31;4952578;28;20035;-48
2024/03/22 06:36:12;;;;;;;5.55;3.15;;;12.50;65.60;;;7.61;100.00;95966.44;4946429;28;20023;-48
2024/03/22 06:38:38;;;;;;;6.20;3.22;;;12.60;65.40;;;7.75;100.00;95972.28;4951042;28;20393;-51
2024/03/22 06:41:04;;;;;;;4.80;2.92;;;12.70;65.30;;;7.85;100.00;95972.47;4948992;28;20060;-50
2024/03/22 06:43:29;;;;;;;4.80;2.97;;;12.90;65.20;;;8.01;100.00;95975.41;4954603;28;20062;-49
2024/03/22 06:45:55;;;;;;;9.15;3.35;;;13.10;65.10;;;8.16;100.00;95974.88;4950361;28;20035;-56
2024/03/22 06:48:22;;;;;;;3.78;2.60;;;13.20;64.80;;;8.31;100.00;95972.47;4944288;28;20113;-50
2024/03/22 06:50:47;;;;;;;4.47;2.92;;;13.40;64.60;;;8.51;100.00;95977.31;4944506;28;20035;-50
2024/03/22 06:53:14;;;;;;;2.47;2.22;;;13.70;64.50;;;8.72;100.00;95970.50;4946958;28;20114;-48
2024/03/22 06:55:39;;;;;;;4.10;2.40;;;13.80;64.10;;;8.93;100.00;95968.91;4942938;28;20023;-47
2024/03/22 06:58:05;;;;;;;3.47;2.30;;;14.10;63.90;;;9.19;100.00;95972.75;4951594;28;20027;-51
2024/03/22 07:00:33;;;;;;;5.20;2.30;;;14.40;63.40;;;9.46;100.00;95968.31;4946460;28;20055;-49
2024/03/22 07:03:02;;;;;;;4.50;2.30;;;14.70;63.00;;;9.66;100.00;95977.56;4950708;28;20370;-48
2024/03/22 07:05:29;;;;;;;4.68;2.40;;;14.90;62.40;;;9.83;100.00;95966.84;4946251;28;20034;-50
2024/03/22 07:07:57;;;;;;;4.55;2.28;;;15.20;61.90;;;10.03;98.01;95979.53;4947676;28;20041;-47
2024/03/22 07:10:27;;;;;;;3.42;2.13;;;15.40;61.30;;;10.19;96.02;95976.78;4947289;28;20037;-51
2024/03/22 07:12:56;;;;;;;4.15;2.42;;;15.50;60.70;;;10.36;94.63;95984.69;4947484;28;20061;-48
2024/03/22 07:15:25;;;;;;;8.02;2.30;;;15.70;60.30;;;10.54;93.17;95982.72;4949067;28;20019;-52
2024/03/22 07:17:51;;;;;;;2.85;2.15;;;15.90;59.90;;;10.70;91.96;95978.31;4946998;28;20122;-51
2024/03/22 07:20:18;;;;;;;3.95;2.53;;;16.00;59.50;;;10.80;91.70;95978.38;4944532;28;20113;-47
2024/03/22 07:22:44;;;;;;;2.95;2.20;;;16.10;59.30;;;10.95;90.51;95977.69;4947856;28;20033;-47
2024/03/22 07:25:11;;;;;;;4.07;2.50;;;16.30;59.10;;;11.15;90.61;95975.13;4940725;28;20054;-49
2024/03/22 07:27:40;;;;;;;2.88;2.20;;;16.50;58.80;;;11.37;87.63;95974.16;4949653;28;20070;-53
2024/03/22 07:30:06;;;;;;;3.30;2.13;;;16.80;58.40;;;11.64;85.89;95977.50;4943009;28;20027;-47
2024/03/22 07:32:33;;;;;;;4.82;2.38;;;17.10;58.00;;;11.94;82.23;95976.00;4954339;28;20026;-48
2024/03/22 07:34:58;;;;;;;4.75;2.20;;;17.40;57.50;;;12.38;82.89;95971.03;4949381;28;20046;-51
2024/03/22 07:37:24;;;;;;;3.67;2.20;;;17.90;57.10;;;12.76;78.30;95976.91;4944094;28;20398;-49
2024/03/22 07:39:50;;;;;;;3.33;2.30;;;18.30;56.50;;;13.03;76.00;95975.78;4948202;28;20038;-49
2024/03/22 07:42:17;;;;;;;4.13;2.17;;;18.60;55.80;;;13.26;75.51;95974.47;4940961;28;20031;-48
2024/03/22 07:44:43;;;;;;;5.05;2.35;;;18.90;55.40;;;13.43;72.98;95970.38;4951430;28;20026;-51
2024/03/22 07:47:09;;;;;;;2.97;2.13;;;19.30;54.70;;;13.84;73.57;95969.41;4943833;28;20404;-52
2024/03/22 07:49:36;;;;;;;3.58;2.13;;;19.70;54.10;;;14.09;68.41;95971.94;4945116;28;20057;-49
2024/03/22 07:52:02;;;;;;;5.43;2.35;;;20.10;53.10;;;14.39;67.28;95970.16;4941880;28;20029;-47
2024/03/22 07:54:28;;;;;;;3.67;2.05;;;20.40;52.40;;;14.69;65.00;95968.34;4946264;28;20034;-48
2024/03/22 07:56:54;;;;;;;3.17;2.30;;;20.70;51.70;;;15.06;65.19;95966.94;4948405;28;20033;-48
2024/03/22 07:59:19;;;;;;;5.75;1.98;;;21.10;51.10;;;15.28;64.89;95967.25;4950418;28;20038;-51
2024/03/22 08:01:46;;;;;;;3.15;2.45;;;21.40;50.70;;;15.55;64.57;95971.25;4946014;28;20065;-50
2024/03/22 08:04:12;;;;;;;5.03;2.85;;;21.80;50.10;;;15.73;62.38;95963.28;4949142;28;20030;-51
2024/03/22 08:06:38;;;;;;;5.07;3.13;;;22.30;49.40;;;15.95;61.37;95965.41;4949050;28;20030;-48
2024/03/22 08:09:04;;;;;;;4.18;2.92;;;22.60;48.60;;;16.36;59.73;95972.91;4949967;28;20034;-50
2024/03/22 08:11:30;;;;;;;3.55;2.80;;;22.90;47.80;;;16.61;57.35;95970.91;4942260;28;20032;-48
2024/03/22 08:14:02;;;;;;;4.72;2.40;;;23.30;47.00;;;16.82;56.01;95979.47;4944881;28;20030;-49
2024/03/22 08:16:31;;;;;;;3.72;2.53;;;23.60;46.30;;;17.08;56.14;95972.56;4943300;28;20459;-51
2024/03/22 08:18:57;;;;;;;3.75;2.55;;;24.00;45.70;;;17.28;55.63;95967.91;4946480;28;20101;-49
2024/03/22 08:21:24;;;;;;;3.03;2.38;;;24.30;45.00;;;17.43;54.36;95956.06;4945289;28;20026;-48
2024/03/22 08:23:52;;;;;;;3.97;2.60;;;24.50;44.20;;;17.67;55.17;95959.34;4945643;28;20034;-50
2024/03/22 08:26:18;;;;;;;5.40;2.67;;;24.80;43.70;;;17.85;54.22;95954.97;4943095;28;20027;-51
2024/03/22 08:28:46;;;;;;;3.58;2.30;;;25.00;43.30;;;17.93;52.27;95956.97;4947022;28;20110;-49
2024/03/22 08:31:12;;;;;;;2.22;2.03;;;25.00;42.80;;;17.90;52.45;95946.78;4950179;28;20097;-48
2024/03/22 08:33:38;;;;;;;5.22;2.33;;;24.90;42.40;;;17.84;54.09;95937.22;4945164;28;20018;-51
2024/03/22 08:36:04;;;;;;;4.20;2.55;;;24.80;42.10;;;17.90;54.54;95943.28;4947837;28;20032;-52
2024/03/22 08:38:30;;;;;;;3.05;2.40;;;24.80;42.00;;;18.04;52.97;95939.44;4944543;28;20022;-55
2024/03/22 08:40:56;;;;;;;4.95;2.72;;;24.80;41.80;;;18.05;52.70;95937.56;4946980;28;20029;-48
2024/03/22 08:43:25;;;;;;;4.13;2.50;;;24.90;41.60;;;18.17;51.59;95937.03;4945561;28;20034;-50
2024/03/22 08:45:52;;;;;;;4.63;2.90;;;24.90;41.40;;;18.19;54.01;95941.00;4947891;28;20057;-48
2024/03/22 08:48:17;;;;;;;3.83;2.33;;;25.00;41.20;;;18.16;51.25;95933.53;4946459;28;20572;-48
2024/03/22 08:50:45;;;;;;;4.18;2.72;;;24.90;40.90;;;18.34;50.15;95933.69;4945739;28;20031;-48
2024/03/22 08:53:10;;;;;;;3.28;2.22;;;24.90;40.70;;;18.25;50.88;95939.81;4945495;28;20026;-51
2024/03/22 08:55:36;;;;;;;3.40;2.50;;;24.70;40.50;;;18.07;51.03;95935.34;4943184;28;20508;-52
2024/03/22 08:58:04;;;;;;;6.38;2.50;;;24.60;40.40;;;17.82;51.70;95938.59;4950428;28;20027;-48
2024/03/22 09:00:30;;;;;;;3.47;2.35;;;24.60;40.40;;;17.55;50.84;95940.22;4945437;28;20404;-56
2024/03/22 09:02:56;;;;;;;2.55;2.35;;;24.60;39.40;;;17.98;51.89;95937.16;4949651;28;20137;-53
2024/03/22 09:05:22;;;;;;;3.88;2.50;;;24.70;39.50;;;18.15;51.35;95936.56;4943232;28;20034;-49
2024/03/22 09:07:48;;;;;;;3.35;3.00;;;24.80;39.50;;;18.31;50.27;95931.59;4943269;28;20053;-51
2024/03/22 09:10:14;;;;;;;4.90;2.15;;;24.80;39.30;;;18.23;50.39;95930.41;4949990;28;20050;-52
2024/03/22 09:12:41;;;;;;;5.55;2.40;;;24.80;39.00;;;18.21;51.26;95925.34;4942376;28;20046;-50
2024/03/22 09:15:08;;;;;;;2.45;2.25;;;24.80;39.30;;;18.12;49.16;95924.47;4948874;28;20429;-55
2024/03/22 09:17:33;;;;;;;5.82;2.80;;;24.80;38.80;;;18.40;51.07;95921.69;4943104;28;20023;-48
2024/03/22 09:19:59;;;;;;;3.42;2.40;;;24.90;38.90;;;18.66;52.08;95922.66;4947348;28;20034;-51
2024/03/22 09:22:25;;;;;;;3.20;2.40;;;25.00;39.00;;;18.84;51.76;95918.19;4945923;28;20022;-52
2024/03/22 09:24:51;;;;;;;4.53;2.42;;;25.10;39.40;;;19.06;49.31;95925.47;4956850;28;20049;-49
2024/03/22 09:27:16;;;;;;;5.20;2.40;;;25.30;39.00;;;19.18;49.94;95917.56;4959032;28;20026;-58
2024/03/22 09:29:44;;;;;;;4.18;2.65;;;25.40;38.80;;;19.09;48.17;95914.03;4954884;28;20027;-51
2024/03/22 09:32:10;;;;;;;2.97;2.42;;;25.60;38.30;;;18.93;47.20;95908.25;4958950;28;20044;-49
2024/03/22 09:34:36;;;;;;;4.28;2.70;;;25.70;37.70;;;19.07;49.33;95910.06;4959328;28;20093;-54
2024/03/22 09:37:02;;;;;;;7.88;2.80;;;25.70;37.50;;;19.10;49.08;95904.03;4961818;28;20023;-48
2024/03/22 09:39:28;;;;;;;4.38;2.83;;;25.80;37.70;;;19.14;49.04;95905.00;4960603;28;20040;-49
2024/03/22 09:41:58;;;;;;;3.42;2.83;;;25.80;37.50;;;19.42;49.30;95900.19;4957886;28;20054;-49
2024/03/22 09:44:27;;;;;;;2.38;2.10;;;25.80;37.60;;;19.39;49.28;95898.09;4961955;28;20030;-48
2024/03/22 09:46:54;;;;;;;5.70;3.08;;;25.90;37.60;;;19.69;47.63;95890.28;4962692;28;20404;-49
2024/03/22 09:49:23;;;;;;;6.40;2.80;;;26.10;37.60;;;19.46;47.74;95892.22;4963865;28;20053;-52
2024/03/22 09:51:52;;;;;;;6.35;2.83;;;26.10;36.80;;;19.69;47.87;95895.69;4958693;28;20019;-52
2024/03/22 09:54:18;;;;;;;6.20;3.10;;;26.10;36.90;;;19.75;47.40;95887.09;4954644;28;20026;-49
2024/03/22 09:56:49;;;;;;;8.63;2.47;;;26.20;36.90;;;19.74;48.26;95882.00;4960469;28;20049;-52
2024/03/22 09:59:15;;;;;;;5.32;2.60;;;26.20;36.70;;;19.78;46.06;95875.66;4956286;28;20056;-50
2024/03/22 10:01:43;;;;;;;3.20;2.80;;;26.20;36.60;;;19.63;47.35;95882.28;4965689;28;20027;-53
2024/03/22 10:04:09;;;;;;;4.32;2.72;;;26.20;36.40;;;19.76;46.78;95885.97;4970391;28;20481;-50
2024/03/22 10:06:35;;;;;;;6.72;2.97;;;26.20;36.60;;;20.02;45.91;95887.91;4962465;28;20029;-53
2024/03/22 10:09:04;;;;;;;3.25;2.83;;;26.50;36.50;;;20.00;44.99;95872.03;4969804;28;20026;-54
2024/03/22 10:11:30;;;;;;;5.85;3.05;;;26.70;36.00;;;20.05;44.81;95871.84;4965988;28;20022;-51
2024/03/22 10:13:55;;;;;;;3.75;2.85;;;26.90;35.50;;;19.94;45.23;95876.00;4968621;28;20511;-52
2024/03/22 10:16:22;;;;;;;4.20;2.40;;;27.20;35.30;;;20.13;44.68;95872.19;4965305;28;20370;-50
2024/03/22 10:18:48;;;;;;;3.50;2.70;;;27.50;35.00;;;20.43;43.92;95855.00;4963851;28;20027;-49